Time;durP1;ratioP1;P1;durP2;ratioP2;P2;SDS_P1;SDS_P2;PMS_P1;PMS_P2;Temp;Humidity;BMP_temperature;BMP_pressure;BME280_temperature;BME280_humidity;BME280_pressure;Samples;Min_cycle;Max_cycle;Signal;HPM_P1;HPM_P2
2023/08/15 00:01:27;;;;;;;12.82;2.42;;;;;;;22.57;79.32;100796.00;5037574;28;20060;-61
2023/08/15 00:03:54;;;;;;;16.17;3.05;;;;;;;22.28;80.09;100792.16;5032985;28;20536;-61
2023/08/15 00:06:22;;;;;;;12.13;3.10;;;;;;;22.11;80.02;100784.44;5031574;28;20512;-62
2023/08/15 00:08:53;;;;;;;11.18;2.97;;;;;;;21.97;79.81;100783.50;5032884;28;20061;-62
2023/08/15 00:11:21;;;;;;;15.18;3.13;;;;;;;22.28;79.57;100786.56;5032971;28;20045;-62
2023/08/15 00:13:49;;;;;;;8.48;2.78;;;;;;;22.30;78.83;100784.16;5041084;28;20677;-62
2023/08/15 00:16:17;;;;;;;10.63;3.13;;;;;;;22.28;79.08;100782.97;5049422;28;20057;-63
2023/08/15 00:18:44;;;;;;;13.43;3.10;;;;;;;21.97;79.75;100783.50;5036296;28;20045;-62
2023/08/15 00:21:12;;;;;;;10.57;2.85;;;;;;;21.87;80.36;100776.63;5036333;28;20045;-62
2023/08/15 00:23:39;;;;;;;11.57;2.80;;;;;;;21.98;79.55;100779.53;5029014;28;20040;-63
2023/08/15 00:26:07;;;;;;;9.48;3.05;;;;;;;21.74;79.85;100780.88;5058497;28;20049;-62
2023/08/15 00:28:34;;;;;;;9.98;2.78;;;;;;;21.65;80.44;100776.81;5053515;28;20049;-61
2023/08/15 00:31:01;;;;;;;12.68;3.47;;;;;;;21.72;79.65;100788.09;5055246;28;20416;-61
2023/08/15 00:33:29;;;;;;;10.85;2.70;;;;;;;21.69;79.38;100783.25;5059060;28;20050;-61
2023/08/15 00:35:57;;;;;;;13.60;3.20;;;;;;;21.65;79.25;100786.03;5051440;28;20059;-62
2023/08/15 00:38:24;;;;;;;11.13;3.15;;;;;;;21.61;79.28;100787.19;5042742;28;20148;-62
2023/08/15 00:40:51;;;;;;;12.38;3.60;;;;;;;21.82;78.30;100788.22;5035268;28;20056;-62
2023/08/15 00:43:19;;;;;;;14.25;2.80;;;;;;;21.95;79.16;100797.94;5040302;28;20053;-62
2023/08/15 00:45:47;;;;;;;14.98;3.67;;;;;;;21.91;77.87;100785.09;5054902;28;20054;-62
2023/08/15 00:48:15;;;;;;;13.20;3.00;;;;;;;22.00;77.60;100780.72;5046225;28;20062;-60
2023/08/15 00:50:45;;;;;;;15.85;3.42;;;;;;;21.76;77.21;100783.31;5053418;28;20049;-61
2023/08/15 00:53:13;;;;;;;13.43;2.60;;;;;;;21.74;78.08;100789.28;5038748;28;20063;-62
2023/08/15 00:55:40;;;;;;;10.50;3.15;;;;;;;21.72;77.83;100788.91;5037480;28;20053;-63
2023/08/15 00:58:08;;;;;;;14.57;3.30;;;;;;;21.73;77.73;100793.31;5045060;28;20057;-62
2023/08/15 01:00:35;;;;;;;12.45;3.22;;;;;;;21.77;77.86;100790.53;5054052;28;20048;-62
2023/08/15 01:03:03;;;;;;;12.80;3.25;;;;;;;21.77;78.58;100787.72;5055890;28;20053;-62
2023/08/15 01:05:31;;;;;;;12.48;3.10;;;;;;;21.78;77.60;100786.56;5053896;28;20067;-62
2023/08/15 01:07:59;;;;;;;11.82;3.47;;;;;;;21.73;78.25;100787.69;5052856;28;20060;-62
2023/08/15 01:10:26;;;;;;;12.27;3.40;;;;;;;21.82;77.18;100788.22;5052403;28;20045;-61
2023/08/15 01:13:07;;;;;;;15.05;3.45;;;;;;;21.73;77.78;100786.88;5053710;28;20111;-62
2023/08/15 01:15:38;;;;;;;10.93;3.08;;;;;;;21.67;77.18;100800.44;5045202;28;20049;-62
2023/08/15 01:18:09;;;;;;;15.02;3.80;;;;;;;21.69;77.49;100800.88;5044926;28;20053;-62
2023/08/15 01:20:37;;;;;;;10.88;2.90;;;;;;;21.61;77.27;100793.59;5053878;28;20056;-61
2023/08/15 01:23:07;;;;;;;8.73;2.90;;;;;;;21.53;79.22;100805.91;5037055;28;20056;-62
2023/08/15 01:25:40;;;;;;;11.52;2.70;;;;;;;21.49;77.65;100799.47;5046842;28;20056;-61
2023/08/15 01:28:14;;;;;;;12.68;3.22;;;;;;;21.32;78.00;100805.72;5051354;28;20053;-63
2023/08/15 01:30:46;;;;;;;12.60;3.53;;;;;;;21.38;77.81;100809.75;5068983;28;20045;-62
2023/08/15 01:33:28;;;;;;;11.32;3.65;;;;;;;21.56;78.29;100810.75;5052349;28;20419;-63
2023/08/15 01:36:02;;;;;;;14.57;3.17;;;;;;;21.47;77.73;100809.44;5036790;28;20075;-63
2023/08/15 01:38:42;;;;;;;13.50;2.83;;;;;;;21.36;77.56;100814.94;5036365;28;20068;-62
2023/08/15 01:41:13;;;;;;;17.55;3.35;;;;;;;21.39;77.76;100813.38;5041933;28;20046;-62
2023/08/15 01:43:42;;;;;;;11.27;3.22;;;;;;;21.65;78.18;100816.88;5041684;28;20048;-62
2023/08/15 01:46:11;;;;;;;11.17;2.93;;;;;;;21.70;76.45;100818.50;5054230;28;20060;-62
2023/08/15 01:48:40;;;;;;;15.40;3.22;;;;;;;21.53;76.57;100830.34;5052332;28;20067;-62
2023/08/15 01:51:08;;;;;;;11.32;3.30;;;;;;;21.37;77.36;100835.38;5054424;28;20053;-61
2023/08/15 01:53:36;;;;;;;11.98;2.97;;;;;;;21.41;77.31;100844.63;5054129;28;20053;-62
2023/08/15 01:56:04;;;;;;;13.70;3.60;;;;;;;21.50;76.91;100842.31;5054325;28;20675;-62
2023/08/15 01:58:32;;;;;;;12.35;3.00;;;;;;;21.54;77.66;100843.97;5040195;28;20055;-63
2023/08/15 02:01:02;;;;;;;9.13;2.47;;;;;;;21.42;76.97;100843.44;5033675;28;20050;-63
2023/08/15 02:03:30;;;;;;;11.50;2.85;;;;;;;21.43;77.37;100853.47;5034707;28;20041;-61
2023/08/15 02:05:57;;;;;;;13.95;3.17;;;;;;;21.53;76.40;100839.53;5035132;28;20053;-63
2023/08/15 02:08:25;;;;;;;9.50;2.70;;;;;;;21.96;74.66;100835.22;5037077;28;20049;-62
2023/08/15 02:10:52;;;;;;;15.30;3.72;;;;;;;22.07;73.98;100845.31;5052192;28;20489;-63
2023/08/15 02:13:20;;;;;;;12.27;3.38;;;;;;;22.09;73.86;100847.72;5051989;28;20057;-63
2023/08/15 02:15:47;;;;;;;16.17;3.50;;;;;;;21.89;74.85;100844.38;5034906;28;20413;-62
2023/08/15 02:18:15;;;;;;;15.77;3.30;;;;;;;21.44;75.84;100844.69;5032596;28;20049;-63
2023/08/15 02:20:44;;;;;;;11.07;2.95;;;;;;;21.79;75.48;100839.44;5047984;28;20059;-62
2023/08/15 02:23:12;;;;;;;16.05;3.00;;;;;;;21.69;75.03;100848.53;5055017;28;20295;-61
2023/08/15 02:25:39;;;;;;;11.35;3.03;;;;;;;21.87;75.42;100855.16;5046765;28;20049;-63
2023/08/15 02:28:07;;;;;;;9.13;2.72;;;;;;;22.00;73.91;100848.06;5066873;28;20056;-63
2023/08/15 02:30:37;;;;;;;12.52;3.53;;;;;;;22.01;73.69;100852.50;5055692;28;20055;-62
2023/08/15 02:33:05;;;;;;;;;;;;;;;22.06;73.52;100854.13;5053668;28;20057;-62
2023/08/15 02:35:32;;;;;;;14.15;3.10;;;;;;;21.99;73.94;100854.88;5042592;28;19928;-63
2023/08/15 02:38:00;;;;;;;11.32;2.80;;;;;;;21.99;74.11;100859.66;5049165;28;20056;-62
2023/08/15 02:40:28;;;;;;;10.30;2.95;;;;;;;21.85;74.02;100851.94;5053557;28;20450;-63
2023/08/15 02:42:55;;;;;;;12.25;2.90;;;;;;;21.82;73.88;100857.50;5055082;28;20059;-63
2023/08/15 02:45:22;;;;;;;12.52;3.13;;;;;;;21.57;75.21;100854.41;5039650;28;20056;-64
2023/08/15 02:47:50;;;;;;;11.18;3.15;;;;;;;21.65;75.02;100844.09;5013694;28;20048;-62
2023/08/15 02:50:17;;;;;;;14.50;3.22;;;;;;;21.61;75.10;100849.66;5035770;28;20067;-63
2023/08/15 02:52:46;;;;;;;15.15;2.67;;;;;;;21.47;75.81;100852.31;5052351;28;20053;-63
2023/08/15 02:55:13;;;;;;;8.43;2.92;;;;;;;21.55;76.03;100851.19;5052779;28;20049;-62
2023/08/15 02:57:40;;;;;;;10.25;3.10;;;;;;;21.58;75.11;100853.25;5051942;28;20056;-62
2023/08/15 03:00:09;;;;;;;10.80;2.90;;;;;;;21.58;75.31;100853.25;5018733;28;20049;-64
2023/08/15 03:02:36;;;;;;;11.20;3.25;;;;;;;21.11;76.86;100858.69;5053394;28;20056;-63
2023/08/15 03:05:04;;;;;;;10.40;3.00;;;;;;;21.18;78.37;100861.56;5046600;28;20389;-63
2023/08/15 03:07:31;;;;;;;14.40;3.65;;;;;;;21.19;78.27;100851.97;5051777;28;20064;-62
2023/08/15 03:09:59;;;;;;;9.40;3.13;;;;;;;21.30;77.53;100850.13;5051718;28;20049;-62
2023/08/15 03:12:28;;;;;;;15.80;3.50;;;;;;;21.30;78.39;100852.09;5052613;28;20041;-63
2023/08/15 03:14:57;;;;;;;9.45;3.15;;;;;;;21.08;78.20;100851.03;5045338;28;20475;-63
2023/08/15 03:17:25;;;;;;;14.55;3.03;;;;;;;21.13;78.95;100856.31;5015542;28;20060;-62
2023/08/15 03:19:53;;;;;;;11.23;3.00;;;;;;;21.02;79.02;100846.97;5032501;28;20049;-61
2023/08/15 03:22:21;;;;;;;7.93;2.50;;;;;;;20.93;79.76;100841.63;5035658;28;20595;-61
2023/08/15 03:24:48;;;;;;;11.15;2.95;;;;;;;20.70;80.77;100849.28;5048058;28;20044;-62
2023/08/15 03:27:16;;;;;;;12.25;3.25;;;;;;;20.67;81.14;100852.03;5052928;28;20033;-63
2023/08/15 03:29:43;;;;;;;11.85;3.08;;;;;;;20.74;81.07;100861.34;5057378;28;20048;-62
2023/08/15 03:32:11;;;;;;;9.50;2.75;;;;;;;21.00;80.07;100860.53;5071353;28;20051;-62
2023/08/15 03:34:38;;;;;;;11.70;3.03;;;;;;;20.91;80.10;100866.38;5051163;28;20044;-63
2023/08/15 03:37:06;;;;;;;11.93;3.17;;;;;;;20.99;80.08;100870.91;5047300;28;20072;-62
2023/08/15 03:39:34;;;;;;;12.60;3.67;;;;;;;21.01;79.63;100881.75;5051624;28;20049;-62
2023/08/15 03:42:01;;;;;;;7.82;2.50;;;;;;;21.04;78.85;100893.00;5052012;28;20041;-62
2023/08/15 03:44:29;;;;;;;10.82;3.20;;;;;;;21.01;79.34;100876.94;5052299;28;20049;-63
2023/08/15 03:46:56;;;;;;;10.90;2.80;;;;;;;21.15;78.93;100884.72;5051583;28;20060;-63
2023/08/15 03:49:23;;;;;;;8.32;2.78;;;;;;;21.18;79.31;100886.78;5056730;28;20045;-62
2023/08/15 03:51:51;;;;;;;11.25;3.00;;;;;;;21.01;79.05;100904.97;5035022;28;20046;-62
2023/08/15 03:54:19;;;;;;;14.57;3.78;;;;;;;21.03;78.91;100904.56;5032043;28;20054;-61
2023/08/15 03:56:46;;;;;;;11.43;3.00;;;;;;;20.98;78.78;100902.94;5036567;28;20041;-61
2023/08/15 03:59:14;;;;;;;12.35;3.42;;;;;;;21.08;78.30;100909.84;5034960;28;20064;-62
2023/08/15 04:01:41;;;;;;;10.07;3.22;;;;;;;20.99;78.89;100917.75;5035284;28;20045;-62
2023/08/15 04:04:10;;;;;;;10.10;2.70;;;;;;;21.17;78.16;100921.59;5036635;28;20053;-61
2023/08/15 04:06:37;;;;;;;9.55;2.78;;;;;;;21.16;77.54;100932.00;5034239;28;20436;-62
2023/08/15 04:09:05;;;;;;;12.98;3.42;;;;;;;20.90;79.36;100933.97;5041301;28;20058;-63
2023/08/15 04:11:32;;;;;;;10.93;3.50;;;;;;;20.86;78.96;100931.13;5053486;28;20349;-61
2023/08/15 04:14:00;;;;;;;13.18;3.03;;;;;;;21.06;78.14;100940.25;5054874;28;20057;-62
2023/08/15 04:16:27;;;;;;;12.07;3.00;;;;;;;21.02;77.87;100936.59;5044903;28;20046;-61
2023/08/15 04:18:55;;;;;;;14.32;3.13;;;;;;;20.98;78.36;100938.50;5046903;28;20412;-61
2023/08/15 04:21:22;;;;;;;12.13;3.78;;;;;;;20.98;77.48;100950.53;5054773;28;20056;-61
2023/08/15 04:23:50;;;;;;;11.40;3.10;;;;;;;20.69;78.83;100947.66;5054540;28;20055;-60
2023/08/15 04:26:18;;;;;;;10.25;3.38;;;;;;;20.75;78.77;100958.16;5049742;28;20045;-61
2023/08/15 04:28:46;;;;;;;12.55;3.20;;;;;;;20.81;79.02;100958.63;5049128;28;20048;-62
2023/08/15 04:31:14;;;;;;;9.75;3.10;;;;;;;20.91;77.83;100957.97;5057541;28;20057;-61
2023/08/15 04:33:41;;;;;;;11.95;3.25;;;;;;;20.81;78.17;100961.44;5074314;28;20064;-62
2023/08/15 04:36:09;;;;;;;11.93;3.33;;;;;;;20.80;78.27;100951.44;5059101;28;20052;-60
2023/08/15 04:38:37;;;;;;;9.07;3.22;;;;;;;20.96;77.12;100952.06;5029713;28;20052;-60
2023/08/15 04:41:06;;;;;;;14.27;3.67;;;;;;;20.81;78.60;100948.25;5054426;28;20385;-61
2023/08/15 04:43:33;;;;;;;11.98;2.97;;;;;;;20.77;78.56;100947.38;5052229;28;20166;-62
2023/08/15 04:46:01;;;;;;;10.02;2.80;;;;;;;20.68;78.28;100946.84;5053531;28;20052;-61
2023/08/15 04:48:28;;;;;;;11.73;3.55;;;;;;;20.62;79.41;100947.53;5054467;28;20052;-62
2023/08/15 04:50:55;;;;;;;9.73;3.13;;;;;;;20.32;80.59;100952.22;5051846;28;20056;-61
2023/08/15 04:53:23;;;;;;;14.90;3.65;;;;;;;20.30;81.16;100948.97;5053944;28;20049;-62
2023/08/15 04:55:50;;;;;;;15.88;3.28;;;;;;;20.36;80.69;100956.72;5054445;28;20057;-63
2023/08/15 04:58:18;;;;;;;11.15;3.03;;;;;;;20.53;80.25;100956.19;5036905;28;20053;-61
2023/08/15 05:00:45;;;;;;;11.13;2.95;;;;;;;20.72;79.56;100963.69;5045923;28;20049;-62
2023/08/15 05:03:13;;;;;;;11.15;3.15;;;;;;;20.43;80.28;100964.41;5053628;28;20053;-61
2023/08/15 05:05:40;;;;;;;11.82;3.13;;;;;;;20.50;80.15;100965.34;5055329;28;20053;-61
2023/08/15 05:08:32;;;;;;;14.18;3.10;;;;;;;20.42;80.74;100971.16;5054338;28;20483;-63
2023/08/15 05:11:00;;;;;;;9.10;2.92;;;;;;;20.58;80.41;100972.66;5047203;28;20050;-62
2023/08/15 05:13:27;;;;;;;12.95;3.40;;;;;;;20.59;79.74;100977.06;5034951;28;20064;-62
2023/08/15 05:15:55;;;;;;;13.57;3.30;;;;;;;20.51;80.78;100974.53;5024802;28;20049;-62
2023/08/15 05:18:22;;;;;;;11.77;3.20;;;;;;;20.42;81.13;100983.19;5050705;28;20576;-62
2023/08/15 05:20:51;;;;;;;11.85;3.22;;;;;;;20.12;81.86;100976.59;5040889;28;20057;-64
2023/08/15 05:23:19;;;;;;;12.15;3.38;;;;;;;19.92;83.02;100973.03;5050311;28;20056;-62
2023/08/15 05:25:49;;;;;;;13.88;3.40;;;;;;;19.99;84.67;100970.38;5041276;28;20049;-62
2023/08/15 05:28:17;;;;;;;10.70;3.08;;;;;;;19.80;84.70;100981.59;5046473;28;20042;-61
2023/08/15 05:30:44;;;;;;;12.40;3.13;;;;;;;20.12;83.88;100980.22;5062475;28;20530;-61
2023/08/15 05:33:11;;;;;;;10.70;3.40;;;;;;;20.04;83.11;100975.66;5061312;28;20051;-63
2023/08/15 05:35:39;;;;;;;11.35;3.20;;;;;;;20.06;83.37;100976.13;5053880;28;20056;-61
2023/08/15 05:38:06;;;;;;;11.52;3.22;;;;;;;20.33;83.25;100984.63;5051712;28;20049;-63
2023/08/15 05:40:34;;;;;;;12.55;3.45;;;;;;;20.34;83.47;100980.63;5054355;28;20057;-62
2023/08/15 05:43:01;;;;;;;14.55;3.05;;;;;;;20.33;81.25;100981.81;5051925;28;20041;-62
2023/08/15 05:45:29;;;;;;;12.68;3.40;;;;;;;20.37;81.54;100985.47;5053930;28;20493;-62
2023/08/15 05:47:56;;;;;;;12.40;3.63;;;;;;;20.39;83.48;100992.31;5053971;28;20057;-61
2023/08/15 05:50:24;;;;;;;13.40;3.58;;;;;;;20.51;81.01;100983.75;5052088;28;20469;-62
2023/08/15 05:52:51;;;;;;;10.90;3.50;;;;;;;20.41;82.00;100989.16;5053989;28;20053;-61
2023/08/15 05:55:18;;;;;;;8.38;2.90;;;;;;;20.41;81.82;100989.97;5053873;28;20048;-62
2023/08/15 05:57:46;;;;;;;15.07;3.67;;;;;;;20.24;82.04;100998.84;5041216;28;20060;-62
2023/08/15 06:00:13;;;;;;;10.73;2.72;;;;;;;20.34;82.57;101005.81;5048845;28;20381;-62
2023/08/15 06:02:42;;;;;;;12.80;2.70;;;;;;;20.43;81.48;101009.19;5038818;28;20056;-61
2023/08/15 06:05:09;;;;;;;10.70;3.40;;;;;;;20.34;81.81;101009.44;5034088;28;20053;-60
2023/08/15 06:07:36;;;;;;;12.80;3.17;;;;;;;20.37;83.48;101005.88;5036838;28;20053;-63
2023/08/15 06:10:05;;;;;;;11.23;3.53;;;;;;;20.49;82.60;101010.47;5043423;28;20057;-62
2023/08/15 06:12:33;;;;;;;15.23;2.72;;;;;;;20.42;83.20;101021.53;5051713;28;20048;-62
2023/08/15 06:15:03;;;;;;;11.98;3.13;;;;;;;20.52;83.61;101027.31;5052519;28;20048;-62
2023/08/15 06:17:30;;;;;;;12.23;2.70;;;;;;;20.44;83.17;101021.97;5050867;28;20048;-61
2023/08/15 06:19:58;;;;;;;11.13;3.00;;;;;;;20.55;81.73;101023.81;5040648;28;20064;-61
2023/08/15 06:22:25;;;;;;;13.70;3.13;;;;;;;20.51;83.39;101031.31;5045865;28;20042;-62
2023/08/15 06:24:53;;;;;;;13.88;3.33;;;;;;;20.29;84.23;101034.91;5046274;28;20044;-62
2023/08/15 06:27:20;;;;;;;13.98;3.53;;;;;;;20.55;82.99;101039.78;5045109;28;20054;-60
2023/08/15 06:29:48;;;;;;;14.55;3.17;;;;;;;20.60;82.58;101054.28;5040926;28;20048;-62
2023/08/15 06:32:29;;;;;;;15.32;3.60;;;;;;;20.47;82.73;101055.63;5043044;28;20041;-62
2023/08/15 06:34:57;;;;;;;14.15;3.20;;;;;;;20.46;83.77;101061.59;5045151;28;20661;-63
2023/08/15 06:37:25;;;;;;;12.13;3.25;;;;;;;20.61;82.47;101060.66;5039668;28;20485;-62
2023/08/15 06:39:52;;;;;;;14.88;3.03;;;;;;;20.63;82.83;101066.69;5040537;28;20063;-61
2023/08/15 06:42:20;;;;;;;13.52;3.50;;;;;;;20.76;82.76;101074.56;5037362;28;20045;-61
2023/08/15 06:44:47;;;;;;;11.15;2.95;;;;;;;20.81;82.37;101081.84;5033665;28;20037;-61
2023/08/15 06:47:15;;;;;;;14.95;3.00;;;;;;;20.82;81.48;101080.63;5053517;28;20419;-61
2023/08/15 06:49:42;;;;;;;14.23;4.05;;;;;;;21.02;80.92;101076.63;5053624;28;20045;-60
2023/08/15 06:52:10;;;;;;;10.82;3.05;;;;;;;21.07;81.01;101079.13;5053603;28;20060;-61
2023/08/15 06:54:37;;;;;;;9.35;2.78;;;;;;;20.88;80.40;101079.97;5052770;28;20483;-61
2023/08/15 06:57:07;;;;;;;17.58;3.40;;;;;;;20.98;81.51;101084.97;5049649;28;20681;-61
2023/08/15 06:59:35;;;;;;;8.43;2.90;;;;;;;21.13;80.37;101086.03;5053072;28;20049;-60
2023/08/15 07:02:03;;;;;;;11.60;3.28;;;;;;;21.44;79.35;101084.91;5051446;28;20048;-59
2023/08/15 07:04:32;;;;;;;10.90;3.40;;;;;;;21.13;79.37;101089.63;5049706;28;20430;-61
2023/08/15 07:07:00;;;;;;;13.75;2.95;;;;;;;21.19;79.30;101087.31;5050915;28;20057;-61
2023/08/15 07:09:32;;;;;;;12.05;3.33;;;;;;;21.22;79.11;101090.19;5052958;28;20413;-58
2023/08/15 07:12:00;;;;;;;9.35;2.67;;;;;;;21.22;78.96;101090.19;5047500;28;20068;-63
2023/08/15 07:14:27;;;;;;;14.63;3.15;;;;;;;21.05;79.79;101090.69;5033393;28;20056;-61
2023/08/15 07:16:55;;;;;;;12.63;3.10;;;;;;;21.21;79.58;101093.34;5038138;28;20045;-61
2023/08/15 07:19:22;;;;;;;12.80;3.40;;;;;;;21.30;79.23;101093.09;5051584;28;20064;-63
2023/08/15 07:21:50;;;;;;;10.77;2.45;;;;;;;21.44;78.44;101093.31;5039466;28;20076;-62
2023/08/15 07:24:17;;;;;;;12.65;3.00;;;;;;;21.24;78.22;101101.00;5064948;28;20040;-62
2023/08/15 07:26:45;;;;;;;11.35;3.40;;;;;;;21.40;78.65;101104.47;5061298;28;20052;-61
2023/08/15 07:29:13;;;;;;;14.65;3.55;;;;;;;21.64;77.34;101108.81;5044675;28;20048;-62
2023/08/15 07:31:41;;;;;;;11.88;3.17;;;;;;;21.58;77.65;101096.31;5076902;28;20077;-61
2023/08/15 07:34:08;;;;;;;10.32;3.08;;;;;;;21.46;77.85;101099.34;5076966;28;20056;-62
2023/08/15 07:36:36;;;;;;;14.23;3.33;;;;;;;21.44;78.69;101107.31;5057233;28;20659;-62
2023/08/15 07:39:03;;;;;;;13.93;3.47;;;;;;;21.32;78.47;101110.34;5054027;28;20830;-60
2023/08/15 07:41:31;;;;;;;16.58;3.70;;;;;;;21.28;79.17;101113.09;5044905;28;20072;-61
2023/08/15 07:43:59;;;;;;;9.73;2.88;;;;;;;21.60;78.17;101113.59;5050051;28;20057;-61
2023/08/15 07:46:27;;;;;;;12.18;2.80;;;;;;;21.32;79.43;101110.34;5049029;28;20057;-61
2023/08/15 07:48:55;;;;;;;12.60;3.30;;;;;;;21.40;79.21;101112.88;5046661;28;20052;-61
2023/08/15 07:51:24;;;;;;;15.55;3.30;;;;;;;21.61;78.65;101106.78;5047707;28;20045;-61
2023/08/15 07:53:51;;;;;;;14.23;3.10;;;;;;;21.63;78.06;101107.22;5046040;28;20047;-62
2023/08/15 07:56:19;;;;;;;14.25;3.00;;;;;;;21.72;77.90;101100.16;5042735;28;20052;-61
2023/08/15 07:58:46;;;;;;;13.77;3.38;;;;;;;21.71;77.68;101106.94;5052075;28;20059;-61
2023/08/15 08:01:13;;;;;;;10.02;3.17;;;;;;;21.88;76.63;101100.78;5050395;28;20045;-61
2023/08/15 08:03:42;;;;;;;9.38;3.00;;;;;;;21.99;75.97;101106.53;5050175;28;20045;-61
2023/08/15 08:06:09;;;;;;;14.52;3.03;;;;;;;22.28;74.56;101103.69;5042466;28;20041;-62
2023/08/15 08:08:57;;;;;;;13.65;3.15;;;;;;;22.32;73.89;101101.75;5047593;28;20056;-62
2023/08/15 08:11:24;;;;;;;12.50;3.33;;;;;;;22.25;73.55;101100.84;5046772;28;20060;-61
2023/08/15 08:13:52;;;;;;;13.05;2.70;;;;;;;22.27;73.70;101095.66;5043151;28;20444;-62
2023/08/15 08:16:21;;;;;;;10.45;3.28;;;;;;;22.61;72.80;101088.88;5046432;28;20052;-62
2023/08/15 08:18:48;;;;;;;12.17;3.60;;;;;;;22.41;72.88;101095.00;5040961;28;20049;-62
2023/08/15 08:21:16;;;;;;;8.90;2.50;;;;;;;22.44;72.81;101092.25;5049460;28;20048;-61
2023/08/15 08:23:43;;;;;;;14.52;3.20;;;;;;;22.27;73.97;101093.69;5051076;28;20049;-61
2023/08/15 08:26:11;;;;;;;10.25;2.78;;;;;;;22.36;73.76;101090.56;5051776;28;20049;-60
2023/08/15 08:28:38;;;;;;;9.02;2.45;;;;;;;22.65;72.32;101081.28;5048296;28;20406;-61
2023/08/15 08:31:06;;;;;;;13.07;3.15;;;;;;;22.63;71.57;101080.84;5038830;28;20065;-60
2023/08/15 08:33:34;;;;;;;12.55;3.28;;;;;;;22.65;71.67;101078.47;5039964;28;20045;-61
2023/08/15 08:36:02;;;;;;;12.75;3.13;;;;;;;22.63;71.35;101083.66;5049874;28;20053;-60
2023/08/15 08:38:29;;;;;;;8.43;2.85;;;;;;;22.64;70.24;101084.47;5042287;28;20528;-60
2023/08/15 08:40:57;;;;;;;8.20;2.83;;;;;;;22.67;70.26;101084.50;5041766;28;20068;-63
2023/08/15 08:43:25;;;;;;;12.43;2.95;;;;;;;22.76;69.18;101078.56;5045947;28;20648;-61
2023/08/15 08:45:54;;;;;;;13.40;3.22;;;;;;;22.78;69.64;101076.19;5037340;28;20041;-61
2023/08/15 08:48:22;;;;;;;13.50;3.00;;;;;;;22.77;70.27;101069.75;5038092;28;20663;-61
2023/08/15 08:50:50;;;;;;;10.32;3.03;;;;;;;22.98;69.23;101074.78;5051996;28;20048;-60
2023/08/15 08:53:17;;;;;;;10.20;2.50;;;;;;;22.85;69.66;101074.25;5050301;28;20090;-62
2023/08/15 08:55:47;;;;;;;11.68;2.95;;;;;;;22.85;68.96;101065.84;5043213;28;20801;-61
2023/08/15 08:58:14;;;;;;;16.90;3.38;;;;;;;22.90;68.55;101073.09;5035017;28;20049;-61
2023/08/15 09:00:44;;;;;;;12.07;3.88;;;;;;;22.84;68.90;101078.25;5053304;28;20127;-60
2023/08/15 09:03:11;;;;;;;12.20;2.80;;;;;;;23.04;68.36;101071.22;5055717;28;20742;-60
2023/08/15 09:05:40;;;;;;;8.88;2.72;;;;;;;23.04;68.47;101073.22;5035055;28;20041;-59
2023/08/15 09:08:08;;;;;;;9.32;3.05;;;;;;;23.04;69.13;101081.63;5041977;28;20049;-62
2023/08/15 09:10:36;;;;;;;9.23;3.20;;;;;;;23.22;68.30;101077.75;5044902;28;20033;-61
2023/08/15 09:13:03;;;;;;;11.48;3.30;;;;;;;23.26;67.17;101072.97;5047452;28;20049;-60
2023/08/15 09:15:31;;;;;;;12.10;3.38;;;;;;;23.19;66.87;101072.13;5055739;28;20041;-60
2023/08/15 09:18:04;;;;;;;11.18;3.10;;;;;;;23.15;67.66;101082.53;5054396;28;20059;-60
2023/08/15 09:20:33;;;;;;;12.77;3.13;;;;;;;23.31;66.70;101081.06;5052932;28;20045;-61
2023/08/15 09:23:03;;;;;;;8.90;3.13;;;;;;;23.03;66.07;101080.81;5049300;28;20044;-64
2023/08/15 09:25:34;;;;;;;8.18;2.85;;;;;;;22.76;68.23;101085.00;5042152;28;20045;-60
2023/08/15 09:28:01;;;;;;;11.02;2.90;;;;;;;23.24;67.05;101088.66;5048646;28;20049;-61
2023/08/15 09:30:29;;;;;;;8.88;2.90;;;;;;;23.60;66.01;101081.28;5039599;28;20050;-63
2023/08/15 09:32:56;;;;;;;12.20;3.05;;;;;;;23.67;65.69;101089.75;5050101;28;20092;-62
2023/08/15 09:35:24;;;;;;;10.43;3.85;;;;;;;23.29;64.97;101088.31;5034260;28;20258;-73
2023/08/15 09:37:53;;;;;;;9.05;3.30;;;;;;;23.52;65.38;101085.25;5038985;28;21388;-60
2023/08/15 09:40:24;;;;;;;9.23;2.70;;;;;;;23.65;63.90;101087.34;5053054;28;20064;-64
2023/08/15 09:42:52;;;;;;;11.10;3.10;;;;;;;23.42;64.28;101084.78;5048471;28;20053;-60
2023/08/15 09:45:20;;;;;;;12.82;2.72;;;;;;;23.51;64.44;101086.44;5050088;28;20059;-60
2023/08/15 09:47:47;;;;;;;9.82;3.40;;;;;;;23.85;63.86;101085.81;5054392;28;20044;-61
2023/08/15 09:50:15;;;;;;;7.90;2.88;;;;;;;24.16;62.49;101090.03;5053735;28;20044;-62
2023/08/15 09:52:45;;;;;;;8.65;2.83;;;;;;;24.33;61.74;101087.28;5043109;28;20057;-63
2023/08/15 09:55:19;;;;;;;9.02;2.50;;;;;;;24.50;60.96;101086.53;5044402;28;20045;-64
2023/08/15 09:57:49;;;;;;;11.38;2.55;;;;;;;24.59;60.49;101080.50;5053942;28;20044;-62
2023/08/15 10:00:17;;;;;;;9.82;3.13;;;;;;;24.72;59.66;101078.97;5052371;28;20059;-61
2023/08/15 10:03:00;;;;;;;8.52;2.70;;;;;;;24.77;58.99;101078.56;5052203;28;20067;-63
2023/08/15 10:05:32;;;;;;;7.97;2.72;;;;;;;24.52;59.93;101080.50;5052672;28;20266;-62
2023/08/15 10:08:00;;;;;;;10.25;3.28;;;;;;;24.52;61.01;101081.31;5052540;28;20049;-63
2023/08/15 10:10:30;;;;;;;10.18;2.97;;;;;;;24.46;61.90;101085.69;5044512;28;20414;-63
2023/08/15 10:12:58;;;;;;;11.48;3.38;;;;;;;24.66;61.45;101083.34;5049009;28;20480;-63
2023/08/15 10:15:26;;;;;;;10.25;2.90;;;;;;;24.01;62.58;101086.34;5052806;28;20075;-63
2023/08/15 10:17:57;;;;;;;11.13;3.30;;;;;;;23.99;63.58;101085.94;5037474;28;20068;-63
2023/08/15 10:20:25;;;;;;;10.18;2.65;;;;;;;23.68;63.72;101096.97;5053641;28;20053;-63
2023/08/15 10:22:54;;;;;;;10.80;3.50;;;;;;;23.73;64.18;101093.81;5052524;28;20061;-63
2023/08/15 10:25:27;;;;;;;9.18;2.58;;;;;;;24.04;63.01;101094.00;5054204;28;20051;-63
2023/08/15 10:27:55;;;;;;;8.70;3.30;;;;;;;24.12;62.61;101089.22;5048862;28;20071;-63
2023/08/15 10:30:46;;;;;;;12.63;2.60;;;;;;;24.08;62.99;101089.19;5065604;28;20551;-63
2023/08/15 10:33:21;;;;;;;7.25;2.22;;;;;;;23.69;63.98;101095.81;5073595;28;20064;-64
2023/08/15 10:35:51;;;;;;;11.75;3.35;;;;;;;23.47;64.34;101091.25;5060172;28;20061;-62
2023/08/15 10:38:21;;;;;;;13.68;2.78;;;;;;;23.72;64.36;101089.38;5053415;28;20060;-62
2023/08/15 10:40:51;;;;;;;9.05;2.38;;;;;;;23.93;62.99;101092.31;5053458;28;20049;-63
2023/08/15 10:43:25;;;;;;;7.72;2.60;;;;;;;23.95;62.69;101087.91;5049884;28;20056;-64
2023/08/15 10:45:52;;;;;;;8.50;2.67;;;;;;;23.88;62.74;101092.69;5034459;28;20049;-63
2023/08/15 10:48:53;;;;;;;8.07;2.63;;;;;;;23.63;64.11;101091.72;5051808;28;20460;-62
2023/08/15 10:51:36;;;;;;;8.55;2.53;;;;;;;24.23;63.16;101095.69;5053204;28;20075;-62
2023/08/15 10:54:14;;;;;;;8.63;3.30;;;;;;;24.34;62.14;101102.16;5053013;28;20053;-62
2023/08/15 10:56:42;;;;;;;7.20;2.42;;;;;;;24.19;61.75;101097.69;5053136;28;20053;-62
2023/08/15 10:59:12;;;;;;;7.15;2.67;;;;;;;23.69;63.73;101099.44;5053000;28;20486;-64
2023/08/15 11:01:40;;;;;;;;;;;;;;;23.74;63.56;101096.25;5049066;28;20156;-62
2023/08/15 11:04:14;;;;;;;6.68;2.78;;;;;;;24.34;62.22;101099.34;5053555;28;19921;-63
2023/08/15 11:06:47;;;;;;;10.45;2.83;;;;;;;24.24;62.21;101097.28;5053171;28;20057;-62
2023/08/15 11:09:15;;;;;;;6.63;2.40;;;;;;;24.63;60.01;101098.22;5052974;28;20079;-61
2023/08/15 11:11:49;;;;;;;8.32;3.00;;;;;;;24.25;61.02;101105.34;5051948;28;20052;-62
2023/08/15 11:14:18;;;;;;;6.65;2.55;;;;;;;23.94;62.55;101105.97;5053083;28;20059;-63
2023/08/15 11:16:49;;;;;;;6.70;2.80;;;;;;;23.83;63.37;101109.94;5046838;28;20061;-63
2023/08/15 11:19:18;;;;;;;9.30;3.50;;;;;;;23.64;63.69;101107.44;5052941;28;20064;-62
2023/08/15 11:21:47;;;;;;;7.28;2.42;;;;;;;23.86;63.27;101112.78;5052982;28;20052;-63
2023/08/15 11:24:15;;;;;;;7.97;3.08;;;;;;;24.28;62.11;101112.19;5052402;28;20049;-64
2023/08/15 11:26:43;;;;;;;8.25;2.70;;;;;;;24.48;61.44;101108.66;5040199;28;20455;-62